sensor_id;sensor_type;location;lat;lon;timestamp;pressure;altitude;pressure_sealevel;temperature;humidity
8637;BME280;4356;49.068;8.658;2023-02-04T00:01:05;101238.00;;;16.46;42.08
8637;BME280;4356;49.068;8.658;2023-02-04T00:03:31;101234.63;;;16.44;41.99
8637;BME280;4356;49.068;8.658;2023-02-04T00:05:56;101226.84;;;16.41;42.21
8637;BME280;4356;49.068;8.658;2023-02-04T00:08:22;101235.28;;;16.46;42.27
8637;BME280;4356;49.068;8.658;2023-02-04T00:10:48;101222.59;;;16.38;42.10
8637;BME280;4356;49.068;8.658;2023-02-04T00:13:13;101225.69;;;16.35;42.06
8637;BME280;4356;49.068;8.658;2023-02-04T00:15:39;101235.66;;;16.43;42.06
8637;BME280;4356;49.068;8.658;2023-02-04T00:18:04;101226.69;;;16.34;42.15
8637;BME280;4356;49.068;8.658;2023-02-04T00:20:32;101251.09;;;16.42;42.40
8637;BME280;4356;49.068;8.658;2023-02-04T00:22:57;101251.44;;;16.39;42.02
8637;BME280;4356;49.068;8.658;2023-02-04T00:25:23;101256.69;;;16.41;41.86
8637;BME280;4356;49.068;8.658;2023-02-04T00:27:48;101259.22;;;16.42;41.85
8637;BME280;4356;49.068;8.658;2023-02-04T00:30:14;101255.66;;;16.42;41.96
8637;BME280;4356;49.068;8.658;2023-02-04T00:32:39;101256.69;;;16.41;42.02
8637;BME280;4356;49.068;8.658;2023-02-04T00:35:05;101264.66;;;16.42;42.19
8637;BME280;4356;49.068;8.658;2023-02-04T00:37:31;101269.59;;;16.39;42.24
8637;BME280;4356;49.068;8.658;2023-02-04T00:39:57;101275.88;;;16.39;41.91
8637;BME280;4356;49.068;8.658;2023-02-04T00:42:23;101272.28;;;16.39;41.85
8637;BME280;4356;49.068;8.658;2023-02-04T00:44:48;101281.44;;;16.38;41.97
8637;BME280;4356;49.068;8.658;2023-02-04T00:47:14;101288.75;;;16.37;41.88
8637;BME280;4356;49.068;8.658;2023-02-04T00:49:39;101294.69;;;16.41;42.00
8637;BME280;4356;49.068;8.658;2023-02-04T00:52:05;101295.50;;;16.41;41.94
8637;BME280;4356;49.068;8.658;2023-02-04T00:54:31;101295.00;;;16.38;41.91
8637;BME280;4356;49.068;8.658;2023-02-04T00:56:56;101291.31;;;16.31;42.05
8637;BME280;4356;49.068;8.658;2023-02-04T00:59:22;101304.69;;;16.40;42.00
8637;BME280;4356;49.068;8.658;2023-02-04T01:01:48;101288.41;;;16.40;42.05
8637;BME280;4356;49.068;8.658;2023-02-04T01:04:14;101313.19;;;16.37;42.04
8637;BME280;4356;49.068;8.658;2023-02-04T01:06:40;101301.47;;;16.37;42.00
8637;BME280;4356;49.068;8.658;2023-02-04T01:09:05;101291.47;;;16.37;41.93
8637;BME280;4356;49.068;8.658;2023-02-04T01:11:32;101296.03;;;16.37;42.08
8637;BME280;4356;49.068;8.658;2023-02-04T01:13:59;101291.47;;;16.37;42.02
8637;BME280;4356;49.068;8.658;2023-02-04T01:16:25;101291.47;;;16.37;41.88
8637;BME280;4356;49.068;8.658;2023-02-04T01:18:50;101289.94;;;16.35;41.93
8637;BME280;4356;49.068;8.658;2023-02-04T01:21:17;101303.50;;;16.35;41.85
8637;BME280;4356;49.068;8.658;2023-02-04T01:23:43;101303.50;;;16.35;41.73
8637;BME280;4356;49.068;8.658;2023-02-04T01:26:09;101310.28;;;16.31;41.77
8637;BME280;4356;49.068;8.658;2023-02-04T01:28:34;101311.81;;;16.33;41.98
8637;BME280;4356;49.068;8.658;2023-02-04T01:31:00;101296.59;;;16.24;41.53
8637;BME280;4356;49.068;8.658;2023-02-04T01:33:25;101316.41;;;16.33;41.96
8637;BME280;4356;49.068;8.658;2023-02-04T01:35:51;101320.13;;;16.32;41.78
8637;BME280;4356;49.068;8.658;2023-02-04T01:38:17;101338.59;;;16.36;41.73
8637;BME280;4356;49.068;8.658;2023-02-04T01:40:42;101318.94;;;16.34;41.94
8637;BME280;4356;49.068;8.658;2023-02-04T01:43:09;101312.19;;;16.30;41.65
8637;BME280;4356;49.068;8.658;2023-02-04T01:45:36;101326.06;;;16.35;41.84
8637;BME280;4356;49.068;8.658;2023-02-04T01:48:03;101314.91;;;16.30;41.94
8637;BME280;4356;49.068;8.658;2023-02-04T01:50:29;101321.47;;;16.36;41.93
8637;BME280;4356;49.068;8.658;2023-02-04T01:52:55;101326.06;;;16.35;42.08
8637;BME280;4356;49.068;8.658;2023-02-04T01:55:25;101335.03;;;16.36;42.10
8637;BME280;4356;49.068;8.658;2023-02-04T01:57:51;101323.03;;;16.30;41.87
8637;BME280;4356;49.068;8.658;2023-02-04T02:00:26;101329.97;;;16.33;41.86
8637;BME280;4356;49.068;8.658;2023-02-04T02:02:54;101328.78;;;16.35;41.74
8637;BME280;4356;49.068;8.658;2023-02-04T02:05:23;101324.72;;;16.31;41.81
8637;BME280;4356;49.068;8.658;2023-02-04T02:07:50;101326.88;;;16.36;41.64
8637;BME280;4356;49.068;8.658;2023-02-04T02:10:17;101317.06;;;16.27;41.54
8637;BME280;4356;49.068;8.658;2023-02-04T02:12:44;101338.09;;;16.33;41.42
8637;BME280;4356;49.068;8.658;2023-02-04T02:15:11;101338.09;;;16.33;41.46
8637;BME280;4356;49.068;8.658;2023-02-04T02:17:38;101336.25;;;16.33;41.49
8637;BME280;4356;49.068;8.658;2023-02-04T02:20:09;101331.84;;;16.24;41.71
8637;BME280;4356;49.068;8.658;2023-02-04T02:23:02;101333.72;;;16.32;41.85
8637;BME280;4356;49.068;8.658;2023-02-04T02:25:29;101336.41;;;16.32;41.89
8637;BME280;4356;49.068;8.658;2023-02-04T02:27:55;101332.84;;;16.31;41.48
8637;BME280;4356;49.068;8.658;2023-02-04T02:30:21;101341.66;;;16.33;41.80
8637;BME280;4356;49.068;8.658;2023-02-04T02:32:49;101332.84;;;16.31;41.90
8637;BME280;4356;49.068;8.658;2023-02-04T02:35:16;101315.94;;;16.21;41.65
8637;BME280;4356;49.068;8.658;2023-02-04T02:37:42;101340.63;;;16.34;41.88
8637;BME280;4356;49.068;8.658;2023-02-04T02:40:09;101319.28;;;16.23;41.81
8637;BME280;4356;49.068;8.658;2023-02-04T02:42:35;101336.06;;;16.27;41.86
8637;BME280;4356;49.068;8.658;2023-02-04T02:45:07;101343.53;;;16.33;41.70
8637;BME280;4356;49.068;8.658;2023-02-04T02:47:35;101348.09;;;16.32;41.90
8637;BME280;4356;49.068;8.658;2023-02-04T02:50:01;101348.09;;;16.32;41.77
8637;BME280;4356;49.068;8.658;2023-02-04T02:52:26;101344.38;;;16.33;41.68
8637;BME280;4356;49.068;8.658;2023-02-04T02:54:52;101340.13;;;16.31;41.51
8637;BME280;4356;49.068;8.658;2023-02-04T02:57:20;101326.59;;;16.23;41.50
8637;BME280;4356;49.068;8.658;2023-02-04T02:59:46;101348.09;;;16.32;41.50
8637;BME280;4356;49.068;8.658;2023-02-04T03:02:18;101347.78;;;16.27;41.54
8637;BME280;4356;49.068;8.658;2023-02-04T03:04:54;101350.81;;;16.32;41.63
8637;BME280;4356;49.068;8.658;2023-02-04T03:07:23;101352.69;;;16.32;41.49
8637;BME280;4356;49.068;8.658;2023-02-04T03:09:48;101360.16;;;16.30;41.46
8637;BME280;4356;49.068;8.658;2023-02-04T03:12:15;101360.34;;;16.28;41.54
8637;BME280;4356;49.068;8.658;2023-02-04T03:14:41;101347.63;;;16.21;41.61
8637;BME280;4356;49.068;8.658;2023-02-04T03:17:08;101346.94;;;16.19;41.68
8637;BME280;4356;49.068;8.658;2023-02-04T03:19:35;101373.53;;;16.31;41.59
8637;BME280;4356;49.068;8.658;2023-02-04T03:22:03;101358.31;;;16.22;41.53
8637;BME280;4356;49.068;8.658;2023-02-04T03:24:30;101356.94;;;16.18;41.70
8637;BME280;4356;49.068;8.658;2023-02-04T03:26:59;101360.88;;;16.16;41.56
8637;BME280;4356;49.068;8.658;2023-02-04T03:29:25;101386.44;;;16.29;41.73
8637;BME280;4356;49.068;8.658;2023-02-04T03:31:51;101392.88;;;16.28;41.37
8637;BME280;4356;49.068;8.658;2023-02-04T03:34:20;101397.47;;;16.28;41.31
8637;BME280;4356;49.068;8.658;2023-02-04T03:36:45;101382.22;;;16.19;41.31
8637;BME280;4356;49.068;8.658;2023-02-04T03:39:11;101394.56;;;16.29;41.32
8637;BME280;4356;49.068;8.658;2023-02-04T03:41:36;101397.28;;;16.29;41.49
8637;BME280;4356;49.068;8.658;2023-02-04T03:44:02;101393.22;;;16.25;41.29
8637;BME280;4356;49.068;8.658;2023-02-04T03:46:28;101401.34;;;16.25;41.37
8637;BME280;4356;49.068;8.658;2023-02-04T03:48:53;101409.16;;;16.28;41.66
8637;BME280;4356;49.068;8.658;2023-02-04T03:51:19;101396.09;;;16.24;41.51
8637;BME280;4356;49.068;8.658;2023-02-04T03:53:44;101377.28;;;16.14;41.53
8637;BME280;4356;49.068;8.658;2023-02-04T03:56:10;101401.69;;;16.22;41.27
8637;BME280;4356;49.068;8.658;2023-02-04T03:58:35;101397.31;;;16.21;41.49
8637;BME280;4356;49.068;8.658;2023-02-04T04:01:01;101413.59;;;16.21;41.68
8637;BME280;4356;49.068;8.658;2023-02-04T04:03:27;101415.09;;;16.24;41.50
8637;BME280;4356;49.068;8.658;2023-02-04T04:05:53;101412.56;;;16.22;41.57
8637;BME280;4356;49.068;8.658;2023-02-04T04:08:18;101406.28;;;16.22;41.50
8637;BME280;4356;49.068;8.658;2023-02-04T04:10:44;101406.94;;;16.24;41.60
8637;BME280;4356;49.068;8.658;2023-02-04T04:13:09;101407.81;;;16.24;41.49
8637;BME280;4356;49.068;8.658;2023-02-04T04:15:35;101409.84;;;16.22;41.15
8637;BME280;4356;49.068;8.658;2023-02-04T04:18:00;101407.13;;;16.22;41.35
8637;BME280;4356;49.068;8.658;2023-02-04T04:20:28;101389.50;;;16.18;41.41
8637;BME280;4356;49.068;8.658;2023-02-04T04:22:54;101397.31;;;16.21;41.38
8637;BME280;4356;49.068;8.658;2023-02-04T04:25:19;101411.69;;;16.22;41.25
8637;BME280;4356;49.068;8.658;2023-02-04T04:27:45;101427.16;;;16.21;41.43
8637;BME280;4356;49.068;8.658;2023-02-04T04:30:11;101418.34;;;16.19;41.31
8637;BME280;4356;49.068;8.658;2023-02-04T04:32:36;101423.75;;;16.19;41.33
8637;BME280;4356;49.068;8.658;2023-02-04T04:35:02;101425.44;;;16.20;41.47
8637;BME280;4356;49.068;8.658;2023-02-04T04:37:28;101405.44;;;16.05;41.30
8637;BME280;4356;49.068;8.658;2023-02-04T04:39:54;101431.22;;;16.17;41.37
8637;BME280;4356;49.068;8.658;2023-02-04T04:42:19;101438.31;;;16.18;41.58
8637;BME280;4356;49.068;8.658;2023-02-04T04:44:45;101428.16;;;16.12;41.44
8637;BME280;4356;49.068;8.658;2023-02-04T04:47:13;101438.66;;;16.15;41.63
8637;BME280;4356;49.068;8.658;2023-02-04T04:49:39;101435.09;;;16.15;41.40
8637;BME280;4356;49.068;8.658;2023-02-04T04:52:04;101442.38;;;16.14;41.66
8637;BME280;4356;49.068;8.658;2023-02-04T04:54:30;101434.94;;;16.16;41.58
8637;BME280;4356;49.068;8.658;2023-02-04T04:56:58;101444.94;;;16.16;41.58
8637;BME280;4356;49.068;8.658;2023-02-04T04:59:24;101441.56;;;16.14;41.40
8637;BME280;4356;49.068;8.658;2023-02-04T05:01:49;101426.47;;;16.11;41.59
8637;BME280;4356;49.068;8.658;2023-02-04T05:04:15;101432.38;;;16.15;41.66
8637;BME280;4356;49.068;8.658;2023-02-04T05:06:40;101441.56;;;16.14;41.72
8637;BME280;4356;49.068;8.658;2023-02-04T05:09:06;101427.97;;;16.06;41.50
8637;BME280;4356;49.068;8.658;2023-02-04T05:11:34;101423.72;;;16.03;41.47
8637;BME280;4356;49.068;8.658;2023-02-04T05:13:59;101449.88;;;16.12;41.62
8637;BME280;4356;49.068;8.658;2023-02-04T05:16:25;101459.69;;;16.13;41.90
8637;BME280;4356;49.068;8.658;2023-02-04T05:18:53;101451.03;;;16.10;41.66
8637;BME280;4356;49.068;8.658;2023-02-04T05:21:19;101459.00;;;16.11;41.81
8637;BME280;4356;49.068;8.658;2023-02-04T05:23:44;101444.94;;;16.08;41.64
8637;BME280;4356;49.068;8.658;2023-02-04T05:26:10;101467.13;;;16.11;41.39
8637;BME280;4356;49.068;8.658;2023-02-04T05:28:36;101462.06;;;16.08;41.63
8637;BME280;4356;49.068;8.658;2023-02-04T05:31:01;101455.28;;;16.04;41.59
8637;BME280;4356;49.068;8.658;2023-02-04T05:33:27;101453.25;;;16.06;41.38
8637;BME280;4356;49.068;8.658;2023-02-04T05:35:52;101459.34;;;16.08;41.71
8637;BME280;4356;49.068;8.658;2023-02-04T05:38:18;101450.53;;;16.06;41.31
8637;BME280;4356;49.068;8.658;2023-02-04T05:40:44;101464.09;;;16.06;41.71
8637;BME280;4356;49.068;8.658;2023-02-04T05:43:09;101467.13;;;16.03;41.56
8637;BME280;4356;49.068;8.658;2023-02-04T05:45:35;101463.06;;;15.99;41.59
8637;BME280;4356;49.068;8.658;2023-02-04T05:48:00;101469.53;;;16.06;41.66
8637;BME280;4356;49.068;8.658;2023-02-04T05:50:26;101466.63;;;16.08;41.57
8637;BME280;4356;49.068;8.658;2023-02-04T05:52:52;101472.22;;;16.06;41.65
8637;BME280;4356;49.068;8.658;2023-02-04T05:55:17;101468.31;;;16.01;41.44
8637;BME280;4356;49.068;8.658;2023-02-04T05:57:43;101476.28;;;16.02;41.68
8637;BME280;4356;49.068;8.658;2023-02-04T06:00:10;101479.84;;;15.95;41.54
8637;BME280;4356;49.068;8.658;2023-02-04T06:02:36;101501.03;;;16.07;41.77
8637;BME280;4356;49.068;8.658;2023-02-04T06:05:01;101502.06;;;16.06;41.55
8637;BME280;4356;49.068;8.658;2023-02-04T06:07:27;101500.22;;;16.07;41.48
8637;BME280;4356;49.068;8.658;2023-02-04T06:09:53;101496.97;;;15.95;41.42
8637;BME280;4356;49.068;8.658;2023-02-04T06:12:18;101504.44;;;16.01;41.68
8637;BME280;4356;49.068;8.658;2023-02-04T06:14:44;101514.25;;;16.02;41.30
8637;BME280;4356;49.068;8.658;2023-02-04T06:17:09;101514.94;;;16.04;41.29
8637;BME280;4356;49.068;8.658;2023-02-04T06:19:35;101517.31;;;15.99;41.12
8637;BME280;4356;49.068;8.658;2023-02-04T06:22:00;101521.34;;;16.03;41.54
8637;BME280;4356;49.068;8.658;2023-02-04T06:24:26;101521.53;;;16.02;41.49
8637;BME280;4356;49.068;8.658;2023-02-04T06:26:52;101526.78;;;16.03;41.43
8637;BME280;4356;49.068;8.658;2023-02-04T06:29:17;101540.19;;;16.05;41.16
8637;BME280;4356;49.068;8.658;2023-02-04T06:31:43;101532.56;;;16.00;41.28
8637;BME280;4356;49.068;8.658;2023-02-04T06:34:09;101528.16;;;15.99;41.24
8637;BME280;4356;49.068;8.658;2023-02-04T06:36:34;101532.03;;;15.97;41.44
8637;BME280;4356;49.068;8.658;2023-02-04T06:39:00;101532.56;;;16.00;41.62
8637;BME280;4356;49.068;8.658;2023-02-04T06:41:25;101543.56;;;15.99;41.32
8637;BME280;4356;49.068;8.658;2023-02-04T06:43:51;101549.69;;;16.01;41.48
8637;BME280;4356;49.068;8.658;2023-02-04T06:46:16;101556.44;;;15.97;41.41
8637;BME280;4356;49.068;8.658;2023-02-04T06:48:42;101547.44;;;15.96;41.16
8637;BME280;4356;49.068;8.658;2023-02-04T06:51:08;101548.31;;;15.97;41.50
8637;BME280;4356;49.068;8.658;2023-02-04T06:53:33;101550.03;;;15.98;41.44
8637;BME280;4356;49.068;8.658;2023-02-04T06:55:59;101557.13;;;15.99;41.58
8637;BME280;4356;49.068;8.658;2023-02-04T06:58:25;101560.88;;;15.98;41.44
8637;BME280;4356;49.068;8.658;2023-02-04T07:00:50;101557.59;;;15.94;41.41
8637;BME280;4356;49.068;8.658;2023-02-04T07:03:16;101559.50;;;15.94;41.40
8637;BME280;4356;49.068;8.658;2023-02-04T07:05:41;101564.06;;;15.93;41.60
8637;BME280;4356;49.068;8.658;2023-02-04T07:08:07;101552.19;;;15.86;41.18
8637;BME280;4356;49.068;8.658;2023-02-04T07:10:33;101554.38;;;15.91;41.18
8637;BME280;4356;49.068;8.658;2023-02-04T07:12:58;101571.72;;;15.98;41.30
8637;BME280;4356;49.068;8.658;2023-02-04T07:15:24;101582.06;;;16.02;41.42
8637;BME280;4356;49.068;8.658;2023-02-04T07:17:49;101576.47;;;16.04;41.34
8637;BME280;4356;49.068;8.658;2023-02-04T07:20:15;101564.09;;;16.01;41.20
8637;BME280;4356;49.068;8.658;2023-02-04T07:22:41;101581.03;;;16.03;40.98
8637;BME280;4356;49.068;8.658;2023-02-04T07:25:07;101583.38;;;15.98;40.93
8637;BME280;4356;49.068;8.658;2023-02-04T07:27:34;101590.53;;;16.07;41.05
8637;BME280;4356;49.068;8.658;2023-02-04T07:30:00;101597.31;;;16.11;41.29
8637;BME280;4356;49.068;8.658;2023-02-04T07:32:25;101597.00;;;16.14;40.85
8637;BME280;4356;49.068;8.658;2023-02-04T07:34:52;101573.22;;;16.00;40.91
8637;BME280;4356;49.068;8.658;2023-02-04T07:37:18;101599.88;;;16.13;41.02
8637;BME280;4356;49.068;8.658;2023-02-04T07:39:45;101615.84;;;16.16;40.88
8637;BME280;4356;49.068;8.658;2023-02-04T07:42:10;101614.13;;;16.15;41.18
8637;BME280;4356;49.068;8.658;2023-02-04T07:44:36;101614.47;;;16.12;40.97
8637;BME280;4356;49.068;8.658;2023-02-04T07:47:02;101614.81;;;16.17;41.04
8637;BME280;4356;49.068;8.658;2023-02-04T07:49:28;101626.16;;;16.20;41.13
8637;BME280;4356;49.068;8.658;2023-02-04T07:51:53;101610.72;;;16.13;41.24
8637;BME280;4356;49.068;8.658;2023-02-04T07:54:19;101622.28;;;16.23;40.87
8637;BME280;4356;49.068;8.658;2023-02-04T07:56:45;101621.59;;;16.21;40.92
8637;BME280;4356;49.068;8.658;2023-02-04T07:59:10;101614.81;;;16.17;40.91
8637;BME280;4356;49.068;8.658;2023-02-04T08:01:36;101633.50;;;16.28;41.05
8637;BME280;4356;49.068;8.658;2023-02-04T08:04:01;101638.91;;;16.28;40.98
8637;BME280;4356;49.068;8.658;2023-02-04T08:06:30;101644.34;;;16.28;40.91
8637;BME280;4356;49.068;8.658;2023-02-04T08:08:55;101647.56;;;16.31;41.30
8637;BME280;4356;49.068;8.658;2023-02-04T08:11:21;101651.63;;;16.27;41.20
8637;BME280;4356;49.068;8.658;2023-02-04T08:13:47;101658.75;;;16.28;41.05
8637;BME280;4356;49.068;8.658;2023-02-04T08:16:12;101656.22;;;16.35;40.92
8637;BME280;4356;49.068;8.658;2023-02-04T08:18:38;101652.66;;;16.34;40.89
8637;BME280;4356;49.068;8.658;2023-02-04T08:21:04;101651.66;;;16.35;40.81
8637;BME280;4356;49.068;8.658;2023-02-04T08:23:31;101657.78;;;16.37;40.88
8637;BME280;4356;49.068;8.658;2023-02-04T08:25:57;101664.72;;;16.40;40.72
8637;BME280;4356;49.068;8.658;2023-02-04T08:28:24;101661.81;;;16.41;40.85
8637;BME280;4356;49.068;8.658;2023-02-04T08:30:50;101661.31;;;16.38;41.14
8637;BME280;4356;49.068;8.658;2023-02-04T08:33:15;101676.94;;;16.44;40.98
8637;BME280;4356;49.068;8.658;2023-02-04T08:35:41;101673.19;;;16.45;40.96
8637;BME280;4356;49.068;8.658;2023-02-04T08:38:07;101668.63;;;16.45;40.89
8637;BME280;4356;49.068;8.658;2023-02-04T08:40:32;101681.91;;;16.49;40.99
8637;BME280;4356;49.068;8.658;2023-02-04T08:42:58;101683.91;;;16.46;40.82
8637;BME280;4356;49.068;8.658;2023-02-04T08:45:24;101682.91;;;16.48;40.81
8637;BME280;4356;49.068;8.658;2023-02-04T08:47:49;101688.00;;;16.51;41.00
8637;BME280;4356;49.068;8.658;2023-02-04T08:50:15;101684.28;;;16.52;40.89
8637;BME280;4356;49.068;8.658;2023-02-04T08:52:41;101688.00;;;16.51;41.05
8637;BME280;4356;49.068;8.658;2023-02-04T08:55:09;101693.44;;;16.51;40.81
8637;BME280;4356;49.068;8.658;2023-02-04T08:57:35;101710.91;;;16.56;40.95
8637;BME280;4356;49.068;8.658;2023-02-04T09:00:01;101705.31;;;16.50;40.90
8637;BME280;4356;49.068;8.658;2023-02-04T09:02:26;101712.81;;;16.56;40.77
8637;BME280;4356;49.068;8.658;2023-02-04T09:04:55;101711.78;;;16.57;40.87
8637;BME280;4356;49.068;8.658;2023-02-04T09:07:20;101713.84;;;16.63;40.61
8637;BME280;4356;49.068;8.658;2023-02-04T09:09:46;101698.53;;;16.54;40.42
8637;BME280;4356;49.068;8.658;2023-02-04T09:12:12;101720.66;;;16.67;40.49
8637;BME280;4356;49.068;8.658;2023-02-04T09:14:37;101712.81;;;16.64;40.70
8637;BME280;4356;49.068;8.658;2023-02-04T09:17:03;101700.75;;;16.58;40.44
8637;BME280;4356;49.068;8.658;2023-02-04T09:19:30;101727.28;;;16.72;40.58
8637;BME280;4356;49.068;8.658;2023-02-04T09:21:55;101712.50;;;16.67;40.56
8637;BME280;4356;49.068;8.658;2023-02-04T09:24:21;101731.31;;;16.76;40.38
8637;BME280;4356;49.068;8.658;2023-02-04T09:26:50;101717.59;;;16.70;40.03
8637;BME280;4356;49.068;8.658;2023-02-04T09:29:15;101735.59;;;16.79;40.08
8637;BME280;4356;49.068;8.658;2023-02-04T09:31:44;101730.34;;;16.77;40.22
8637;BME280;4356;49.068;8.658;2023-02-04T09:34:09;101735.59;;;16.79;40.24
8637;BME280;4356;49.068;8.658;2023-02-04T09:36:35;101740.50;;;16.83;40.04
8637;BME280;4356;49.068;8.658;2023-02-04T09:39:04;101738.13;;;16.80;40.28
8637;BME280;4356;49.068;8.658;2023-02-04T09:41:32;101729.81;;;16.74;40.14
8637;BME280;4356;49.068;8.658;2023-02-04T09:43:58;101735.94;;;16.84;39.77
8637;BME280;4356;49.068;8.658;2023-02-04T09:46:25;101734.06;;;16.84;40.06
8637;BME280;4356;49.068;8.658;2023-02-04T09:48:57;101734.41;;;16.89;39.69
8637;BME280;4356;49.068;8.658;2023-02-04T09:51:26;101743.59;;;16.88;39.64
8637;BME280;4356;49.068;8.658;2023-02-04T09:53:54;101749.72;;;16.90;40.04
8637;BME280;4356;49.068;8.658;2023-02-04T09:56:25;101754.13;;;16.91;39.82
8637;BME280;4356;49.068;8.658;2023-02-04T09:58:50;101753.94;;;16.93;39.70
8637;BME280;4356;49.068;8.658;2023-02-04T10:01:17;101746.13;;;16.98;39.53
8637;BME280;4356;49.068;8.658;2023-02-04T10:03:46;101753.59;;;16.96;39.50
8637;BME280;4356;49.068;8.658;2023-02-04T10:06:17;101743.75;;;16.95;39.43
8637;BME280;4356;49.068;8.658;2023-02-04T10:08:44;101757.38;;;17.03;39.23
8637;BME280;4356;49.068;8.658;2023-02-04T10:11:11;101739.00;;;16.97;39.52
8637;BME280;4356;49.068;8.658;2023-02-04T10:13:42;101732.72;;;16.96;39.19
8637;BME280;4356;49.068;8.658;2023-02-04T10:16:14;101744.28;;;17.06;39.40
8637;BME280;4356;49.068;8.658;2023-02-04T10:18:41;101730.19;;;16.95;39.37
8637;BME280;4356;49.068;8.658;2023-02-04T10:21:19;101756.50;;;17.10;39.30
8637;BME280;4356;49.068;8.658;2023-02-04T10:23:48;101747.16;;;17.05;39.38
8637;BME280;4356;49.068;8.658;2023-02-04T10:26:15;101767.38;;;17.18;39.11
8637;BME280;4356;49.068;8.658;2023-02-04T10:28:41;101757.19;;;17.20;39.02
8637;BME280;4356;49.068;8.658;2023-02-04T10:31:39;101755.00;;;17.24;38.51
8637;BME280;4356;49.068;8.658;2023-02-04T10:36:48;101765.72;;;17.33;38.91
8637;BME280;4356;49.068;8.658;2023-02-04T10:39:17;101767.22;;;17.36;38.78
8637;BME280;4356;49.068;8.658;2023-02-04T10:41:45;101759.75;;;17.38;38.68
8637;BME280;4356;49.068;8.658;2023-02-04T10:44:13;101749.06;;;17.36;38.81
8637;BME280;4356;49.068;8.658;2023-02-04T10:46:39;101758.75;;;17.39;38.39
8637;BME280;4356;49.068;8.658;2023-02-04T10:49:21;101753.31;;;17.39;38.17
8637;BME280;4356;49.068;8.658;2023-02-04T10:51:48;101748.00;;;17.37;38.54
8637;BME280;4356;49.068;8.658;2023-02-04T10:54:14;101743.25;;;17.39;38.39
8637;BME280;4356;49.068;8.658;2023-02-04T10:57:10;101750.06;;;17.43;38.63
8637;BME280;4356;49.068;8.658;2023-02-04T10:59:38;101750.59;;;17.39;38.63
8637;BME280;4356;49.068;8.658;2023-02-04T11:02:46;101759.75;;;17.46;38.20
8637;BME280;4356;49.068;8.658;2023-02-04T11:05:18;101754.00;;;17.41;38.49
8637;BME280;4356;49.068;8.658;2023-02-04T11:07:46;101766.03;;;17.46;38.46
8637;BME280;4356;49.068;8.658;2023-02-04T11:10:38;101754.19;;;17.48;38.35
8637;BME280;4356;49.068;8.658;2023-02-04T11:13:21;101762.16;;;17.49;38.66
8637;BME280;4356;49.068;8.658;2023-02-04T11:16:45;101747.16;;;17.45;38.24
8637;BME280;4356;49.068;8.658;2023-02-04T11:18:58;101742.44;;;17.47;38.42
8637;BME280;4356;49.068;8.658;2023-02-04T11:39:42;101747.69;;;17.81;37.93
8637;BME280;4356;49.068;8.658;2023-02-04T11:42:19;101745.47;;;17.84;37.55
8637;BME280;4356;49.068;8.658;2023-02-04T11:47:15;101745.44;;;17.92;37.53
8637;BME280;4356;49.068;8.658;2023-02-04T11:49:41;101727.09;;;17.86;37.15
8637;BME280;4356;49.068;8.658;2023-02-04T11:52:13;101745.75;;;17.97;36.94
8637;BME280;4356;49.068;8.658;2023-02-04T11:54:39;101737.94;;;17.94;36.91
8637;BME280;4356;49.068;8.658;2023-02-04T11:57:05;101747.09;;;18.01;37.02
8637;BME280;4356;49.068;8.658;2023-02-04T11:59:30;101746.59;;;17.98;37.13
8637;BME280;4356;49.068;8.658;2023-02-04T12:02:15;101748.16;;;18.00;36.98
8637;BME280;4356;49.068;8.658;2023-02-04T12:05:08;101750.00;;;18.00;37.18
8637;BME280;4356;49.068;8.658;2023-02-04T12:07:34;101740.66;;;17.94;37.26
8637;BME280;4356;49.068;8.658;2023-02-04T12:12:44;101747.81;;;17.95;37.33
8637;BME280;4356;49.068;8.658;2023-02-04T12:15:29;101749.16;;;17.99;36.58
8637;BME280;4356;49.068;8.658;2023-02-04T12:20:27;101732.34;;;17.96;37.06
8637;BME280;4356;49.068;8.658;2023-02-04T12:22:53;101737.94;;;17.94;36.61
8637;BME280;4356;49.068;8.658;2023-02-04T12:25:18;101731.50;;;17.95;36.95
8637;BME280;4356;49.068;8.658;2023-02-04T12:27:44;101732.00;;;17.99;36.92
8637;BME280;4356;49.068;8.658;2023-02-04T12:30:10;101740.00;;;18.00;37.12
8637;BME280;4356;49.068;8.658;2023-02-04T12:32:36;101748.47;;;18.05;36.72
8637;BME280;4356;49.068;8.658;2023-02-04T12:35:02;101750.16;;;18.06;37.03
8637;BME280;4356;49.068;8.658;2023-02-04T12:37:29;101744.56;;;18.08;36.79
8637;BME280;4356;49.068;8.658;2023-02-04T12:39:54;101750.50;;;18.11;36.57
8637;BME280;4356;49.068;8.658;2023-02-04T12:42:20;101756.06;;;18.18;36.80
8637;BME280;4356;49.068;8.658;2023-02-04T12:44:45;101745.00;;;18.19;36.50
8637;BME280;4356;49.068;8.658;2023-02-04T12:47:11;101743.31;;;18.18;35.95
8637;BME280;4356;49.068;8.658;2023-02-04T12:49:36;101737.53;;;18.21;35.83
8637;BME280;4356;49.068;8.658;2023-02-04T12:52:05;101742.44;;;18.26;35.44
8637;BME280;4356;49.068;8.658;2023-02-04T12:54:31;101737.00;;;18.26;36.12
8637;BME280;4356;49.068;8.658;2023-02-04T12:56:56;101743.28;;;18.26;36.46
8637;BME280;4356;49.068;8.658;2023-02-04T12:59:27;101746.19;;;18.25;36.55
8637;BME280;4356;49.068;8.658;2023-02-04T13:01:53;101753.66;;;18.23;36.62
8637;BME280;4356;49.068;8.658;2023-02-04T13:04:18;101749.75;;;18.25;36.57
8637;BME280;4356;49.068;8.658;2023-02-04T13:06:44;101760.81;;;18.24;36.43
8637;BME280;4356;49.068;8.658;2023-02-04T13:09:10;101739.25;;;18.14;36.48
8637;BME280;4356;49.068;8.658;2023-02-04T13:11:35;101748.22;;;18.23;36.32
8637;BME280;4356;49.068;8.658;2023-02-04T13:14:01;101748.41;;;18.21;36.69
8637;BME280;4356;49.068;8.658;2023-02-04T13:16:26;101746.00;;;18.26;36.36
8637;BME280;4356;49.068;8.658;2023-02-04T13:18:52;101743.50;;;18.17;36.41
8637;BME280;4356;49.068;8.658;2023-02-04T13:21:18;101749.09;;;18.15;36.65
8637;BME280;4356;49.068;8.658;2023-02-04T13:23:43;101744.50;;;18.24;36.69
8637;BME280;4356;49.068;8.658;2023-02-04T13:26:09;101754.53;;;18.23;36.52
8637;BME280;4356;49.068;8.658;2023-02-04T13:28:35;101742.97;;;18.21;36.51
8637;BME280;4356;49.068;8.658;2023-02-04T13:31:01;101743.31;;;18.18;36.33
8637;BME280;4356;49.068;8.658;2023-02-04T13:33:29;101748.41;;;18.21;35.90
8637;BME280;4356;49.068;8.658;2023-02-04T13:35:55;101751.81;;;18.23;36.04
8637;BME280;4356;49.068;8.658;2023-02-04T13:38:21;101768.94;;;18.32;36.33